This is the latest recevied weather packets stored in our database for station/object IK6ZNK-3. If no packets are shown the sender has not sent any weather packets the latest 1 day(s).
| Time | Temp. | Humidity | Pressure | Rain* | Wind** | Luminosity | Snow |
|---|---|---|---|---|---|---|---|
| 1836274381 | 22.22° C | 50% | 1020.6 hPa | 0 mm | 1.79 m/s, 141° | - | - |
| 1836274230 | 22.22° C | 50% | 1020.6 hPa | 0 mm | 2.24 m/s, 135° | - | - |
| 1778040007 | 15° C | 71% | 1004.4 hPa | 0 mm | 0.89 m/s, 120° | - | - |
| 1778039406 | 14.44° C | 75% | 1004.3 hPa | 0 mm | 0 m/s | - | - |
| 1778038806 | 15.56° C | 73% | 1004.2 hPa | 0 mm | 0 m/s | - | - |
| 1778038206 | 15.56° C | 70% | 1004.1 hPa | 0 mm | 0.45 m/s, 90° | - | - |
| 1778037606 | 15.56° C | 70% | 1004.2 hPa | 0 mm | 0.45 m/s, 94° | - | - |
| 1778037006 | 16.11° C | 68% | 1004.6 hPa | 0 mm | 1.34 m/s, 139° | - | - |
| 1778036407 | 16.11° C | 68% | 1004.4 hPa | 0 mm | 2.68 m/s, 140° | - | - |
| 1778035806 | 16.11° C | 68% | 1004.5 hPa | 0 mm | 3.13 m/s, 142° | - | - |
| 1778035206 | 16.11° C | 68% | 1004.6 hPa | 0 mm | 2.68 m/s, 152° | - | - |
| 1778034606 | 16.11° C | 71% | 1004.5 hPa | 0 mm | 0.89 m/s, 116° | - | - |
| 1778034006 | 15.56° C | 72% | 1004.9 hPa | 0 mm | 0.45 m/s, 135° | - | - |
| 1778033406 | 15° C | 73% | 1005.1 hPa | 0 mm | 0 m/s | - | - |
| 1778032807 | 15.56° C | 73% | 1005 hPa | 0 mm | 1.79 m/s, 159° | - | - |
| 1778032206 | 16.11° C | 71% | 1005 hPa | 0 mm | 3.13 m/s, 139° | - | - |
| 1778031607 | 16.11° C | 71% | 1005 hPa | 0 mm | 1.79 m/s, 152° | - | - |
| 1778031007 | 16.11° C | 70% | 1005 hPa | 0 mm | 1.34 m/s, 144° | - | - |
| 1778030406 | 15.56° C | 74% | 1005.2 hPa | 0 mm | 0 m/s | - | - |
| 1778029806 | 16.11° C | 73% | 1005.3 hPa | 0 mm | 0.45 m/s, 112° | - | - |
| 1778029206 | 15.56° C | 74% | 1005.1 hPa | 0 mm | 0.45 m/s, 92° | - | - |
| 1778028606 | 15.56° C | 77% | 1005.4 hPa | 0 mm | 1.34 m/s, 111° | - | - |
| 1778028006 | 14.44° C | 79% | 1005.4 hPa | 0 mm | 0.89 m/s, 114° | - | - |
| 1778027407 | 15° C | 80% | 1005.3 hPa | 0 mm | 0.45 m/s, 90° | - | - |
| 1778026807 | 15° C | 80% | 1005.3 hPa | 0 mm | 0.45 m/s, 90° | - | - |
* Rain latest hour (hover to see other rain measurements)
** Current wind speed in m/s (hover to see current wind gust speed)